Time;durP1;ratioP1;P1;durP2;ratioP2;P2;SDS_P1;SDS_P2;PMS_P1;PMS_P2;Temp;Humidity;BMP_temperature;BMP_pressure;BME280_temperature;BME280_humidity;BME280_pressure;Samples;Min_cycle;Max_cycle;Signal;HPM_P1;HPM_P2
2022/01/03 00:00:45;;;;;;;6.53;2.45;;;9.90;99.90;;;;;;5013148;28;20117;-75
2022/01/03 00:03:12;;;;;;;4.68;2.35;;;9.80;99.90;;;;;;5009884;28;20026;-74
2022/01/03 00:05:38;;;;;;;6.35;2.30;;;9.70;99.90;;;;;;5001447;28;20018;-75
2022/01/03 00:08:05;;;;;;;3.85;2.50;;;9.70;99.90;;;;;;5006898;28;20068;-75
2022/01/03 00:10:33;;;;;;;11.23;2.50;;;9.70;99.90;;;;;;5004933;28;20080;-75
2022/01/03 00:12:59;;;;;;;5.82;2.50;;;9.80;99.90;;;;;;5031853;28;20017;-75
2022/01/03 00:15:25;;;;;;;9.45;3.40;;;9.70;99.90;;;;;;5014454;28;20029;-75
2022/01/03 00:17:53;;;;;;;5.68;2.67;;;9.90;99.90;;;;;;5010253;28;20033;-76
2022/01/03 00:20:23;;;;;;;8.25;3.10;;;9.80;99.90;;;;;;5014142;28;20022;-75
2022/01/03 00:22:56;;;;;;;5.60;2.78;;;9.90;99.90;;;;;;5026742;28;20181;-75
2022/01/03 00:25:24;;;;;;;9.00;2.53;;;10.10;99.90;;;;;;5030740;28;20021;-76
2022/01/03 00:28:25;;;;;;;4.95;2.35;;;10.10;99.90;;;;;;5025160;28;20053;-72
2022/01/03 00:30:54;;;;;;;4.63;1.90;;;10.40;99.90;;;;;;4982309;28;20503;-74
2022/01/03 00:33:21;;;;;;;6.70;2.10;;;10.50;99.90;;;;;;5014965;28;20034;-73
2022/01/03 00:35:54;;;;;;;6.38;2.55;;;10.40;99.90;;;;;;5025877;28;20032;-73
2022/01/03 00:38:23;;;;;;;8.27;2.30;;;10.40;99.90;;;;;;5009400;28;20037;-73
2022/01/03 00:40:49;;;;;;;6.18;2.40;;;10.20;99.90;;;;;;5022528;28;20494;-73
2022/01/03 00:43:18;;;;;;;7.97;2.30;;;10.30;99.90;;;;;;5020781;28;20362;-74
2022/01/03 00:45:43;;;;;;;13.43;2.35;;;10.40;99.90;;;;;;5006560;28;20026;-74
2022/01/03 00:48:10;;;;;;;7.38;2.90;;;10.30;99.90;;;;;;5027094;28;20040;-74
2022/01/03 00:50:39;;;;;;;8.77;2.60;;;10.20;99.90;;;;;;5022787;28;20083;-74
2022/01/03 00:53:05;;;;;;;5.20;2.03;;;10.10;99.90;;;;;;5020339;28;20083;-74
2022/01/03 00:55:31;;;;;;;6.80;2.20;;;10.10;99.90;;;;;;5020012;28;20025;-74
2022/01/03 00:58:09;;;;;;;7.75;2.25;;;9.80;99.90;;;;;;5012376;28;20124;-74
2022/01/03 01:00:38;;;;;;;4.15;1.15;;;9.80;99.90;;;;;;5021735;28;20204;-73
2022/01/03 01:03:14;;;;;;;2.28;1.08;;;8.90;99.90;;;;;;5009523;28;20392;-72
2022/01/03 01:05:44;;;;;;;3.15;0.90;;;8.10;99.90;;;;;;5017584;28;20049;-75
2022/01/03 01:08:10;;;;;;;2.92;0.90;;;7.60;99.90;;;;;;4990655;28;20462;-75
2022/01/03 01:10:38;;;;;;;2.25;0.80;;;7.30;99.90;;;;;;5019666;28;20121;-74
2022/01/03 01:13:10;;;;;;;2.97;0.90;;;7.20;99.90;;;;;;5025778;28;20664;-75
2022/01/03 01:15:36;;;;;;;1.52;0.80;;;7.10;99.90;;;;;;5026415;28;20039;-75
2022/01/03 01:18:04;;;;;;;3.65;1.20;;;7.10;99.90;;;;;;5021081;28;20100;-75
2022/01/03 01:20:32;;;;;;;2.00;0.75;;;7.10;99.90;;;;;;5020006;28;20057;-77
2022/01/03 01:22:57;;;;;;;3.17;0.90;;;7.00;99.90;;;;;;5033114;28;20021;-76
2022/01/03 01:28:16;;;;;;;3.55;1.10;;;7.00;99.90;;;;;;4999595;28;20036;-76
2022/01/03 01:30:42;;;;;;;2.05;0.80;;;6.90;99.90;;;;;;5027783;28;20120;-76
2022/01/03 01:33:13;;;;;;;1.52;0.70;;;7.00;99.90;;;;;;5024886;28;20017;-76
2022/01/03 01:35:53;;;;;;;0.95;0.60;;;7.00;99.90;;;;;;5019221;28;20503;-76
2022/01/03 01:38:29;;;;;;;2.05;0.60;;;7.10;99.90;;;;;;5001879;28;20084;-77
2022/01/03 01:40:56;;;;;;;2.60;0.70;;;7.10;99.90;;;;;;5027257;28;20033;-76
2022/01/03 01:43:42;;;;;;;2.38;0.63;;;7.10;99.90;;;;;;5019280;28;20488;-76
2022/01/03 01:46:15;;;;;;;1.70;0.98;;;7.20;99.90;;;;;;5020160;28;20040;-76
2022/01/03 01:48:44;;;;;;;5.97;1.52;;;7.10;99.90;;;;;;5001391;28;20112;-76
2022/01/03 01:51:12;;;;;;;2.30;0.98;;;7.20;99.90;;;;;;5019167;28;20096;-76
2022/01/03 01:53:50;;;;;;;1.52;0.88;;;7.20;99.90;;;;;;5025696;28;20026;-76
2022/01/03 01:56:27;;;;;;;2.33;1.00;;;7.20;99.90;;;;;;5015347;28;20112;-76
2022/01/03 01:58:59;;;;;;;2.28;0.77;;;7.20;99.90;;;;;;5021442;28;20392;-77
2022/01/03 02:01:39;;;;;;;1.55;0.85;;;7.10;99.90;;;;;;5008398;28;20065;-75
2022/01/03 02:04:16;;;;;;;2.05;0.80;;;7.20;99.90;;;;;;5008814;28;20017;-77
2022/01/03 02:06:47;;;;;;;3.00;0.70;;;7.20;99.90;;;;;;5028973;28;20032;-77
2022/01/03 02:09:20;;;;;;;2.30;0.80;;;7.20;99.90;;;;;;5015670;28;20018;-77
2022/01/03 02:11:57;;;;;;;3.45;0.80;;;7.20;99.90;;;;;;5022484;28;20104;-77
2022/01/03 02:14:25;;;;;;;3.83;1.10;;;7.20;99.90;;;;;;5017805;28;20025;-77
2022/01/03 02:16:53;;;;;;;1.38;0.88;;;7.20;99.90;;;;;;5024019;28;20021;-77
2022/01/03 02:19:19;;;;;;;5.22;0.90;;;7.20;99.90;;;;;;5018559;28;20064;-77
2022/01/03 02:21:46;;;;;;;2.72;0.77;;;7.30;99.90;;;;;;5019914;28;20054;-77
2022/01/03 02:24:12;;;;;;;2.33;0.90;;;7.30;99.90;;;;;;5004474;28;20025;-77
2022/01/03 02:26:39;;;;;;;2.03;0.73;;;7.40;99.90;;;;;;5020156;28;20037;-78
2022/01/03 02:29:05;;;;;;;1.63;0.85;;;7.40;99.90;;;;;;5020578;28;20024;-78
2022/01/03 02:31:32;;;;;;;3.72;0.90;;;7.40;99.90;;;;;;5020667;28;20388;-77
2022/01/03 02:34:00;;;;;;;1.77;0.85;;;7.40;99.90;;;;;;5031855;28;20033;-78
2022/01/03 02:36:27;;;;;;;1.88;1.08;;;7.40;99.90;;;;;;5001680;28;20034;-75
2022/01/03 02:38:52;;;;;;;2.17;1.00;;;7.40;99.90;;;;;;5007472;28;20087;-75
2022/01/03 02:41:18;;;;;;;5.07;1.00;;;7.40;99.90;;;;;;5024938;28;20492;-78
2022/01/03 02:43:44;;;;;;;2.55;1.00;;;7.40;99.90;;;;;;5018722;28;20118;-78
2022/01/03 02:46:12;;;;;;;3.80;1.20;;;7.50;99.90;;;;;;5001363;28;20021;-76
2022/01/03 02:48:37;;;;;;;2.42;1.13;;;7.50;99.90;;;;;;5025018;28;20531;-76
2022/01/03 02:51:03;;;;;;;3.83;1.50;;;7.50;99.90;;;;;;5011932;28;20105;-73
2022/01/03 02:53:31;;;;;;;3.17;1.20;;;7.50;99.90;;;;;;5027977;28;20057;-77
2022/01/03 02:55:56;;;;;;;3.72;1.10;;;7.50;99.90;;;;;;5001266;28;20038;-77
2022/01/03 02:58:22;;;;;;;3.45;1.20;;;7.50;99.90;;;;;;5005187;28;20031;-76
2022/01/03 03:00:52;;;;;;;3.63;1.38;;;7.50;99.90;;;;;;5019254;28;20448;-76
2022/01/03 03:03:21;;;;;;;3.35;1.85;;;7.60;99.90;;;;;;5028424;28;20064;-76
2022/01/03 03:05:50;;;;;;;3.40;1.20;;;7.60;99.90;;;;;;5021012;28;20484;-75
2022/01/03 03:08:17;;;;;;;2.35;1.02;;;7.70;99.90;;;;;;5025936;28;20034;-75
2022/01/03 03:10:43;;;;;;;3.47;1.38;;;7.80;99.90;;;;;;5029488;28;20080;-75
2022/01/03 03:13:09;;;;;;;4.03;1.20;;;7.80;99.90;;;;;;5025441;28;20037;-75
2022/01/03 03:15:38;;;;;;;3.15;1.33;;;7.80;99.90;;;;;;5030232;28;20101;-76
2022/01/03 03:18:04;;;;;;;4.15;1.20;;;7.80;99.90;;;;;;5031472;28;20021;-75
2022/01/03 03:20:33;;;;;;;3.88;1.40;;;7.80;99.90;;;;;;5035243;28;20512;-77
2022/01/03 03:22:59;;;;;;;6.82;2.05;;;7.70;99.90;;;;;;5029462;28;20022;-77
2022/01/03 03:25:28;;;;;;;4.80;2.92;;;7.80;99.90;;;;;;5027561;28;20022;-75
2022/01/03 03:28:01;;;;;;;4.60;1.70;;;7.70;99.90;;;;;;5007524;28;20488;-75
2022/01/03 03:30:35;;;;;;;2.88;1.17;;;7.60;99.90;;;;;;5020159;28;20033;-75
2022/01/03 03:33:07;;;;;;;8.02;2.05;;;7.60;99.90;;;;;;5009349;28;20064;-76
2022/01/03 03:35:34;;;;;;;5.88;1.38;;;7.60;99.90;;;;;;5032206;28;20029;-76
2022/01/03 03:37:59;;;;;;;3.85;1.20;;;7.60;99.90;;;;;;5016485;28;20037;-76
2022/01/03 03:40:25;;;;;;;2.83;1.02;;;7.50;99.90;;;;;;5031984;28;20034;-76
2022/01/03 03:42:50;;;;;;;4.43;1.05;;;7.50;99.90;;;;;;5034769;28;20025;-76
2022/01/03 03:45:16;;;;;;;2.53;1.50;;;7.50;99.90;;;;;;5013294;28;20091;-75
2022/01/03 03:47:42;;;;;;;2.88;1.17;;;7.40;99.90;;;;;;5013418;28;20511;-75
2022/01/03 03:50:10;;;;;;;3.50;1.60;;;7.50;99.90;;;;;;5021194;28;20072;-76
2022/01/03 03:52:37;;;;;;;6.22;1.60;;;7.40;99.90;;;;;;5010414;28;20075;-75
2022/01/03 03:55:04;;;;;;;2.13;1.10;;;7.40;99.90;;;;;;5023577;28;20412;-76
2022/01/03 03:57:30;;;;;;;3.67;1.30;;;7.40;99.90;;;;;;5005201;28;20171;-77
2022/01/03 03:59:55;;;;;;;3.10;1.20;;;7.40;99.90;;;;;;5011406;28;20021;-77
2022/01/03 04:02:21;;;;;;;3.20;1.17;;;7.40;99.90;;;;;;5032733;28;20036;-76
2022/01/03 04:04:49;;;;;;;4.30;1.25;;;7.40;99.90;;;;;;5028873;28;20025;-77
2022/01/03 04:07:14;;;;;;;5.88;1.10;;;7.40;99.90;;;;;;5033475;28;20627;-77
2022/01/03 04:09:40;;;;;;;3.72;1.20;;;7.40;99.90;;;;;;5022078;28;20037;-77
2022/01/03 04:12:06;;;;;;;3.65;1.10;;;7.40;99.90;;;;;;5009536;28;20036;-77
2022/01/03 04:14:31;;;;;;;2.42;1.00;;;7.40;99.90;;;;;;5025796;28;20127;-77
2022/01/03 04:16:57;;;;;;;3.63;1.25;;;7.40;99.90;;;;;;5013110;28;20041;-77
2022/01/03 04:19:22;;;;;;;3.83;1.10;;;7.40;99.90;;;;;;5016124;28;20031;-77
2022/01/03 04:21:52;;;;;;;5.85;1.58;;;7.40;99.90;;;;;;5016181;28;20021;-77
2022/01/03 04:24:20;;;;;;;3.33;1.20;;;7.40;99.90;;;;;;5022835;28;20047;-78
2022/01/03 04:26:49;;;;;;;4.43;1.48;;;7.40;99.90;;;;;;5033323;28;20017;-77
2022/01/03 04:29:20;;;;;;;4.00;1.20;;;7.30;99.90;;;;;;5020311;28;20013;-78
2022/01/03 04:31:48;;;;;;;6.18;1.40;;;7.30;99.90;;;;;;5033858;28;20105;-78
2022/01/03 04:34:14;;;;;;;6.47;1.67;;;7.20;99.90;;;;;;5031597;28;20507;-78
2022/01/03 04:36:40;;;;;;;5.55;1.50;;;7.30;99.90;;;;;;5015771;28;20029;-78
2022/01/03 04:39:06;;;;;;;3.65;1.38;;;7.20;99.90;;;;;;5016615;28;20767;-77
2022/01/03 04:41:33;;;;;;;3.35;1.52;;;7.30;99.90;;;;;;5035524;28;20121;-78
2022/01/03 04:44:05;;;;;;;7.22;1.90;;;7.30;99.90;;;;;;5016482;28;20100;-78
2022/01/03 04:46:34;;;;;;;4.93;1.55;;;7.30;99.90;;;;;;5016669;28;20028;-77
2022/01/03 04:48:59;;;;;;;4.10;1.33;;;7.30;99.90;;;;;;5013239;28;20075;-77
2022/01/03 04:51:25;;;;;;;5.43;1.67;;;7.30;99.90;;;;;;5029863;28;20427;-75
2022/01/03 04:53:50;;;;;;;6.32;1.63;;;7.40;99.90;;;;;;5032139;28;20034;-75
2022/01/03 04:56:16;;;;;;;6.32;1.80;;;7.40;99.90;;;;;;5009255;28;20120;-77
2022/01/03 04:58:42;;;;;;;8.98;1.70;;;7.40;99.90;;;;;;5033526;28;20448;-73
2022/01/03 05:01:12;;;;;;;5.05;1.40;;;7.40;99.90;;;;;;5012500;28;20400;-77
2022/01/03 05:03:38;;;;;;;6.75;1.40;;;7.40;99.90;;;;;;5024515;28;20027;-77
2022/01/03 05:06:03;;;;;;;4.28;1.55;;;7.40;99.90;;;;;;5015488;28;20395;-76
2022/01/03 05:08:30;;;;;;;6.70;1.75;;;7.40;99.90;;;;;;5012605;28;20044;-77
2022/01/03 05:11:00;;;;;;;6.78;1.80;;;7.40;99.90;;;;;;5032951;28;20045;-76
2022/01/03 05:13:25;;;;;;;9.77;1.90;;;7.40;99.90;;;;;;5015630;28;20033;-78
2022/01/03 05:15:51;;;;;;;6.28;1.77;;;7.30;99.90;;;;;;5013920;28;20091;-78
2022/01/03 05:18:17;;;;;;;10.00;1.98;;;7.30;99.90;;;;;;5024045;28;20029;-74
2022/01/03 05:20:45;;;;;;;6.65;1.67;;;7.40;99.90;;;;;;5015482;28;20726;-78
2022/01/03 05:23:13;;;;;;;6.70;1.58;;;7.30;99.90;;;;;;5038356;28;20468;-77
2022/01/03 05:25:38;;;;;;;7.85;1.90;;;7.30;99.90;;;;;;5024921;28;20107;-79
2022/01/03 05:28:04;;;;;;;7.63;1.80;;;7.30;99.90;;;;;;5008110;28;20018;-75
2022/01/03 05:30:29;;;;;;;5.65;1.50;;;7.20;99.90;;;;;;5013396;28;20025;-77
2022/01/03 05:32:55;;;;;;;6.43;2.20;;;7.30;99.90;;;;;;5031822;28;20036;-76
2022/01/03 05:35:23;;;;;;;7.45;1.95;;;7.30;99.90;;;;;;5023128;28;20033;-77
2022/01/03 05:37:48;;;;;;;6.45;1.75;;;7.30;99.90;;;;;;5023758;28;20057;-77
2022/01/03 05:40:14;;;;;;;9.10;2.75;;;7.30;99.90;;;;;;5015355;28;20033;-77
2022/01/03 05:42:41;;;;;;;7.82;2.50;;;7.30;99.90;;;;;;5017686;28;20108;-77
2022/01/03 05:45:06;;;;;;;3.88;2.08;;;7.30;99.90;;;;;;5017650;28;20030;-77
2022/01/03 05:47:36;;;;;;;105.60;68.60;;;7.40;99.90;;;;;;5022005;28;20022;-77
2022/01/03 05:50:02;;;;;;;10.48;4.57;;;7.50;99.90;;;;;;5028342;28;20026;-76
2022/01/03 05:52:28;;;;;;;398.73;269.73;;;7.60;99.90;;;;;;5027030;28;20029;-77
2022/01/03 05:54:56;;;;;;;22.98;14.85;;;7.70;99.90;;;;;;5015321;28;20073;-74
2022/01/03 05:57:21;;;;;;;7.65;3.10;;;7.60;99.90;;;;;;5024401;28;20047;-74
2022/01/03 05:59:47;;;;;;;4.93;2.30;;;7.60;99.90;;;;;;5014503;28;20476;-75
2022/01/03 06:02:15;;;;;;;7.70;1.88;;;7.60;99.90;;;;;;5020442;28;20022;-75
2022/01/03 06:05:02;;;;;;;6.85;3.58;;;7.70;99.90;;;;;;5025567;28;20036;-75
2022/01/03 06:07:26;;;;;;;6.47;2.28;;;7.70;99.90;;;;;;5024669;28;20103;-75
2022/01/03 06:09:52;;;;;;;8.30;4.32;;;7.70;99.90;;;;;;5020161;28;20033;-75
2022/01/03 06:12:18;;;;;;;6.30;1.85;;;7.90;99.90;;;;;;5018907;28;20029;-75
2022/01/03 06:14:47;;;;;;;5.45;1.70;;;7.80;99.90;;;;;;5024016;28;20070;-75
2022/01/03 06:17:15;;;;;;;6.82;1.77;;;7.80;99.90;;;;;;5025825;28;20543;-75
2022/01/03 06:19:41;;;;;;;5.82;1.88;;;7.90;99.90;;;;;;5023082;28;20079;-77
2022/01/03 06:22:11;;;;;;;6.13;2.42;;;7.80;99.90;;;;;;5031844;28;20520;-77
2022/01/03 06:24:38;;;;;;;6.10;1.73;;;7.80;99.90;;;;;;5023260;28;20071;-77
2022/01/03 06:27:04;;;;;;;7.88;2.63;;;7.70;99.90;;;;;;5019162;28;20021;-73
2022/01/03 06:29:30;;;;;;;6.28;1.73;;;7.60;99.90;;;;;;5005223;28;20049;-73
2022/01/03 06:31:57;;;;;;;3.22;1.52;;;7.70;99.90;;;;;;5025658;28;20507;-75
2022/01/03 06:34:22;;;;;;;4.22;1.40;;;7.70;99.90;;;;;;5020904;28;20476;-75
2022/01/03 06:36:48;;;;;;;6.70;1.83;;;7.70;99.90;;;;;;5031590;28;20037;-77
2022/01/03 06:39:14;;;;;;;6.10;1.80;;;7.70;99.90;;;;;;5006633;28;20022;-77
2022/01/03 06:41:40;;;;;;;4.55;1.50;;;7.70;99.90;;;;;;5008981;28;20121;-77
2022/01/03 06:44:06;;;;;;;6.25;1.70;;;7.70;99.90;;;;;;5027113;28;20064;-77
2022/01/03 06:46:33;;;;;;;6.65;1.58;;;7.70;99.90;;;;;;5030690;28;20022;-77
2022/01/03 06:49:00;;;;;;;6.07;1.88;;;7.60;99.90;;;;;;5021234;28;20022;-77
2022/01/03 06:51:28;;;;;;;4.47;1.60;;;7.50;99.90;;;;;;5001225;28;20029;-77
2022/01/03 06:53:54;;;;;;;4.70;1.70;;;7.50;99.90;;;;;;5007270;28;20021;-78
2022/01/03 06:56:20;;;;;;;5.60;1.70;;;7.40;99.90;;;;;;5016772;28;20033;-77
2022/01/03 06:58:46;;;;;;;5.70;1.40;;;7.30;99.90;;;;;;5022894;28;20061;-77
2022/01/03 07:01:12;;;;;;;5.88;1.77;;;7.30;99.90;;;;;;5030240;28;20029;-78
2022/01/03 07:03:40;;;;;;;4.95;1.50;;;7.20;99.90;;;;;;5016041;28;20418;-77
2022/01/03 07:06:06;;;;;;;6.40;1.83;;;7.30;99.90;;;;;;5019070;28;20114;-77
2022/01/03 07:08:31;;;;;;;4.93;1.45;;;7.20;99.90;;;;;;5005913;28;20017;-77
2022/01/03 07:10:57;;;;;;;4.47;1.45;;;7.20;99.90;;;;;;5025709;28;20092;-76
2022/01/03 07:13:27;;;;;;;4.88;1.50;;;7.20;99.90;;;;;;5007385;28;20025;-77
2022/01/03 07:21:20;;;;;;;4.45;1.65;;;7.20;99.90;;;;;;5023903;28;20032;-77
2022/01/03 07:23:46;;;;;;;3.50;1.17;;;7.20;99.90;;;;;;5007480;28;20021;-77
2022/01/03 07:26:11;;;;;;;4.13;1.17;;;7.20;99.90;;;;;;5020316;28;20060;-77
2022/01/03 07:28:37;;;;;;;6.78;1.45;;;7.20;99.90;;;;;;5001380;28;20049;-77
2022/01/03 07:31:06;;;;;;;3.55;1.50;;;7.20;99.90;;;;;;5024202;28;20040;-77
2022/01/03 07:33:31;;;;;;;3.90;1.52;;;7.20;99.90;;;;;;5025072;28;20025;-77
2022/01/03 07:36:00;;;;;;;3.75;1.58;;;7.20;99.90;;;;;;5001828;28;20426;-73
2022/01/03 07:38:27;;;;;;;104.35;48.17;;;7.10;99.90;;;;;;5019132;28;20180;-77
2022/01/03 07:40:52;;;;;;;49.70;25.45;;;7.20;99.90;;;;;;5035026;28;20021;-76
2022/01/03 07:43:18;;;;;;;24.75;13.07;;;7.20;99.90;;;;;;5022442;28;20053;-76
2022/01/03 07:45:43;;;;;;;43.38;22.52;;;7.30;99.90;;;;;;5034721;28;20025;-77
2022/01/03 07:48:09;;;;;;;31.33;17.23;;;7.20;99.90;;;;;;5001957;28;20523;-76
2022/01/03 07:50:34;;;;;;;81.25;40.70;;;7.30;99.90;;;;;;5023117;28;20038;-76
2022/01/03 07:53:04;;;;;;;57.92;27.92;;;7.30;99.90;;;;;;5021272;28;20112;-76
2022/01/03 07:55:29;;;;;;;40.10;19.25;;;7.40;99.90;;;;;;5021383;28;20093;-76
2022/01/03 07:57:55;;;;;;;104.00;50.90;;;7.40;99.90;;;;;;5028055;28;20025;-76
2022/01/03 08:00:21;;;;;;;19.95;9.13;;;7.40;99.90;;;;;;5024397;28;20022;-76
2022/01/03 08:02:46;;;;;;;8.85;2.33;;;7.30;99.90;;;;;;5021144;28;20025;-76
2022/01/03 08:05:14;;;;;;;7.75;2.55;;;7.40;99.90;;;;;;5024457;28;20088;-73
2022/01/03 08:07:45;;;;;;;5.18;2.00;;;7.30;99.90;;;;;;5009825;28;20038;-73
2022/01/03 08:10:14;;;;;;;5.88;1.83;;;7.40;99.90;;;;;;5025220;28;20033;-76
2022/01/03 08:12:44;;;;;;;5.15;1.70;;;7.30;99.90;;;;;;5021055;28;20033;-73
2022/01/03 08:15:10;;;;;;;3.47;1.30;;;7.40;99.90;;;;;;5022412;28;20029;-76
2022/01/03 08:17:35;;;;;;;4.18;1.65;;;7.30;99.90;;;;;;5001818;28;20029;-73
2022/01/03 08:20:03;;;;;;;5.00;1.58;;;7.30;99.90;;;;;;5022333;28;20041;-76
2022/01/03 08:22:28;;;;;;;6.38;1.70;;;7.30;99.90;;;;;;5009972;28;20030;-76
2022/01/03 08:24:54;;;;;;;5.78;1.52;;;7.40;99.90;;;;;;5025849;28;20502;-76
2022/01/03 08:27:19;;;;;;;5.75;1.80;;;7.40;99.90;;;;;;5002921;28;20036;-75
2022/01/03 08:29:45;;;;;;;4.07;1.67;;;7.50;99.90;;;;;;5022503;28;20029;-75
2022/01/03 08:32:13;;;;;;;6.32;1.40;;;7.40;99.90;;;;;;5011153;28;20018;-76
2022/01/03 08:34:38;;;;;;;5.03;1.60;;;7.50;99.90;;;;;;5025836;28;20026;-75
2022/01/03 08:37:05;;;;;;;3.80;1.45;;;7.40;99.90;;;;;;5010839;28;20022;-75
2022/01/03 08:39:31;;;;;;;5.18;1.70;;;7.40;99.90;;;;;;5008396;28;20116;-75
2022/01/03 08:41:56;;;;;;;6.60;1.67;;;7.40;99.90;;;;;;5002706;28;20117;-73
2022/01/03 08:44:22;;;;;;;10.52;5.63;;;7.40;99.90;;;;;;5033560;28;20022;-77
2022/01/03 08:46:49;;;;;;;6.55;2.00;;;7.50;99.90;;;;;;5006057;28;20018;-76
2022/01/03 08:49:15;;;;;;;5.10;2.40;;;7.50;99.90;;;;;;5003956;28;20022;-76
2022/01/03 08:51:40;;;;;;;7.97;3.10;;;7.40;99.90;;;;;;5008805;28;20037;-75
2022/01/03 08:54:09;;;;;;;5.55;2.33;;;7.40;99.90;;;;;;5023659;28;20132;-74
2022/01/03 08:56:34;;;;;;;7.50;3.83;;;7.40;99.90;;;;;;5027146;28;20496;-77
2022/01/03 08:59:02;;;;;;;5.05;2.65;;;7.40;99.90;;;;;;5026300;28;20041;-77
2022/01/03 09:01:28;;;;;;;6.72;2.05;;;7.40;99.90;;;;;;5020652;28;20033;-77
2022/01/03 09:03:53;;;;;;;5.70;2.05;;;7.50;99.90;;;;;;5003848;28;20029;-78
2022/01/03 09:06:19;;;;;;;7.95;2.35;;;7.50;99.90;;;;;;5027125;28;20030;-76
2022/01/03 09:08:46;;;;;;;5.07;2.00;;;7.50;99.90;;;;;;5007566;28;20032;-74
2022/01/03 09:11:12;;;;;;;5.53;2.58;;;7.60;99.90;;;;;;5013968;28;20034;-74
2022/01/03 09:13:37;;;;;;;7.30;2.03;;;7.70;99.90;;;;;;5013236;28;20033;-77
2022/01/03 09:16:07;;;;;;;5.70;1.98;;;7.80;99.90;;;;;;5008515;28;20030;-77
2022/01/03 09:18:35;;;;;;;5.35;2.08;;;7.80;99.90;;;;;;5025575;28;20062;-77
2022/01/03 09:21:05;;;;;;;5.57;2.17;;;7.80;99.90;;;;;;4997400;28;20084;-76
2022/01/03 09:23:35;;;;;;;4.68;2.08;;;7.90;99.90;;;;;;5018023;28;20026;-77
2022/01/03 09:28:49;;;;;;;6.28;2.10;;;7.90;99.90;;;;;;5026606;28;20025;-75
2022/01/03 09:31:15;;;;;;;6.57;2.10;;;8.00;99.90;;;;;;5031695;28;20486;-73
2022/01/03 09:33:41;;;;;;;7.22;2.10;;;8.00;99.90;;;;;;5026498;28;20459;-75
2022/01/03 09:36:06;;;;;;;5.70;2.10;;;8.00;99.90;;;;;;5022732;28;20053;-75
2022/01/03 09:38:34;;;;;;;9.32;2.40;;;8.00;99.90;;;;;;5028534;28;20025;-72
2022/01/03 09:41:02;;;;;;;4.95;2.00;;;8.00;99.90;;;;;;5026247;28;20067;-75
2022/01/03 09:43:48;;;;;;;8.38;2.28;;;8.00;99.90;;;;;;5029393;28;20029;-76
2022/01/03 09:46:31;;;;;;;7.13;2.22;;;7.90;99.90;;;;;;5032254;28;20032;-76
2022/01/03 09:48:57;;;;;;;6.63;2.20;;;8.00;99.90;;;;;;5006403;28;20030;-76
2022/01/03 09:51:27;;;;;;;8.02;2.17;;;8.00;99.90;;;;;;5030048;28;20120;-76
2022/01/03 09:53:55;;;;;;;6.93;3.05;;;8.10;99.90;;;;;;5021953;28;20067;-76
2022/01/03 09:56:21;;;;;;;9.63;2.92;;;8.20;99.90;;;;;;5003297;28;20083;-76
2022/01/03 09:58:47;;;;;;;10.52;2.95;;;8.20;99.90;;;;;;5032218;28;20029;-76
2022/01/03 10:01:13;;;;;;;8.35;2.17;;;8.20;99.90;;;;;;5017127;28;20110;-74
2022/01/03 10:03:47;;;;;;;6.90;2.30;;;8.20;99.90;;;;;;5022829;28;20025;-74
2022/01/03 10:06:16;;;;;;;15.82;3.17;;;8.20;99.90;;;;;;5016928;28;20136;-76
2022/01/03 10:08:42;;;;;;;9.77;2.63;;;8.20;99.90;;;;;;5022381;28;20021;-76
2022/01/03 10:11:08;;;;;;;8.35;2.53;;;8.20;99.90;;;;;;5017561;28;20030;-76
2022/01/03 10:13:34;;;;;;;8.35;3.05;;;8.20;99.90;;;;;;5000196;28;20033;-76
2022/01/03 10:15:59;;;;;;;7.75;2.70;;;8.30;99.90;;;;;;5014252;28;20392;-76
2022/01/03 10:18:28;;;;;;;10.18;3.33;;;8.30;99.90;;;;;;5022362;28;20029;-73
2022/01/03 10:20:57;;;;;;;11.25;2.47;;;8.30;99.90;;;;;;5018512;28;20041;-76
2022/01/03 10:23:25;;;;;;;10.48;3.17;;;8.20;99.90;;;;;;5017768;28;20416;-76
2022/01/03 10:26:12;;;;;;;7.43;3.28;;;8.20;99.90;;;;;;5030245;28;20030;-76
2022/01/03 10:28:38;;;;;;;9.38;3.63;;;8.30;99.90;;;;;;5019057;28;20018;-77
2022/01/03 10:31:19;;;;;;;10.48;3.72;;;8.30;99.90;;;;;;5033071;28;20112;-77
2022/01/03 10:34:03;;;;;;;9.10;3.78;;;8.20;99.90;;;;;;5017152;28;20036;-77
2022/01/03 10:36:31;;;;;;;11.05;4.53;;;8.20;99.90;;;;;;5019317;28;20041;-77
2022/01/03 10:38:58;;;;;;;15.93;5.72;;;8.10;99.90;;;;;;5006136;28;20029;-77
2022/01/03 10:41:25;;;;;;;8.77;3.42;;;8.00;99.90;;;;;;5025592;28;20080;-77
2022/01/03 10:43:58;;;;;;;9.80;4.38;;;8.00;99.90;;;;;;5020815;28;20108;-77
2022/01/03 10:46:29;;;;;;;5.97;3.13;;;8.10;99.90;;;;;;5023200;28;20545;-77
2022/01/03 10:49:05;;;;;;;14.25;5.07;;;8.10;99.90;;;;;;5033050;28;20496;-75
2022/01/03 10:51:31;;;;;;;7.88;3.92;;;8.10;99.90;;;;;;5017895;28;20091;-75
2022/01/03 10:53:59;;;;;;;8.63;4.25;;;8.00;99.90;;;;;;5021386;28;20484;-76
2022/01/03 10:56:40;;;;;;;12.23;5.00;;;8.10;99.90;;;;;;5017073;28;20105;-77
2022/01/03 10:59:11;;;;;;;15.05;7.60;;;8.10;99.90;;;;;;4994947;28;20445;-75
2022/01/03 11:01:37;;;;;;;9.15;3.83;;;8.20;99.90;;;;;;5005630;28;20032;-75
2022/01/03 11:04:03;;;;;;;13.70;4.38;;;8.20;99.90;;;;;;5017884;28;20022;-75
2022/01/03 11:11:45;;;;;;;10.45;3.60;;;8.20;99.90;;;;;;5023454;28;20053;-77
2022/01/03 11:14:33;;;;;;;10.63;3.60;;;8.20;99.90;;;;;;5016559;28;20088;-74
2022/01/03 11:17:02;;;;;;;9.95;4.18;;;8.20;99.90;;;;;;5028904;28;20029;-76
2022/01/03 11:19:38;;;;;;;7.60;3.35;;;8.10;99.90;;;;;;5027938;28;20506;-76
2022/01/03 11:22:03;;;;;;;;;;;8.10;99.90;;;;;;5020332;28;20036;-76
2022/01/03 11:24:29;;;;;;;16.50;5.10;;;8.10;99.90;;;;;;5020012;28;20349;-76
2022/01/03 11:26:57;;;;;;;15.10;5.50;;;8.20;99.90;;;;;;5027850;28;20096;-75
2022/01/03 11:29:27;;;;;;;12.80;3.67;;;8.40;99.90;;;;;;5013288;28;20079;-76
2022/01/03 11:31:54;;;;;;;9.18;3.03;;;8.40;99.90;;;;;;5035880;28;20037;-76
2022/01/03 11:34:26;;;;;;;14.13;2.67;;;8.50;99.90;;;;;;5022973;28;20072;-76
2022/01/03 11:36:52;;;;;;;10.95;3.05;;;8.50;99.90;;;;;;5015092;28;20446;-76
2022/01/03 11:39:20;;;;;;;5.75;2.63;;;8.40;99.90;;;;;;5030430;28;20403;-75
2022/01/03 11:41:46;;;;;;;17.40;3.05;;;8.50;99.90;;;;;;5030803;28;20462;-76
2022/01/03 11:44:15;;;;;;;7.03;2.08;;;8.50;99.90;;;;;;5012352;28;20484;-76
2022/01/03 11:46:43;;;;;;;7.53;2.20;;;8.50;99.90;;;;;;5029669;28;20499;-75
2022/01/03 11:49:09;;;;;;;8.60;3.38;;;8.60;99.90;;;;;;5030275;28;20398;-76
2022/01/03 11:51:36;;;;;;;9.70;2.60;;;8.70;99.90;;;;;;5013385;28;20540;-76
2022/01/03 11:54:06;;;;;;;9.07;2.40;;;8.60;99.90;;;;;;5030594;28;20057;-76
2022/01/03 11:56:44;;;;;;;7.28;2.10;;;8.60;99.90;;;;;;5013661;28;20026;-76
2022/01/03 12:04:33;;;;;;;4.72;2.00;;;8.50;99.90;;;;;;5029039;28;20041;-76
2022/01/03 12:07:08;;;;;;;7.72;3.38;;;8.40;99.90;;;;;;5033148;28;20098;-74
2022/01/03 12:09:37;;;;;;;7.40;4.57;;;8.40;99.90;;;;;;5012896;28;20018;-73
2022/01/03 12:12:04;;;;;;;8.60;4.78;;;8.30;99.90;;;;;;5031434;28;20020;-75
2022/01/03 12:14:46;;;;;;;12.82;6.38;;;8.30;99.90;;;;;;5014650;28;20017;-76
2022/01/03 12:17:18;;;;;;;11.25;4.80;;;8.20;99.90;;;;;;5030823;28;20029;-75
2022/01/03 12:19:46;;;;;;;7.70;3.58;;;8.20;99.90;;;;;;5033532;28;20096;-75
2022/01/03 12:22:19;;;;;;;8.18;2.78;;;8.20;99.90;;;;;;5016529;28;20038;-74
2022/01/03 12:24:52;;;;;;;9.15;2.85;;;8.20;99.90;;;;;;5013301;28;20484;-77
2022/01/03 12:27:30;;;;;;;7.47;3.00;;;8.20;99.90;;;;;;5004776;28;20025;-77
2022/01/03 12:29:56;;;;;;;9.05;3.00;;;8.20;99.90;;;;;;5031332;28;20030;-77
2022/01/03 12:32:33;;;;;;;8.82;2.63;;;8.20;99.90;;;;;;5022770;28;20076;-77
2022/01/03 12:35:07;;;;;;;7.80;2.83;;;8.20;99.90;;;;;;5013206;28;20018;-77
2022/01/03 12:37:42;;;;;;;8.07;2.53;;;8.20;99.90;;;;;;5009325;28;20450;-75
2022/01/03 12:40:09;;;;;;;8.00;2.83;;;8.30;99.90;;;;;;5006254;28;20025;-77
2022/01/03 12:42:53;;;;;;;9.38;2.95;;;8.30;99.90;;;;;;5011085;28;20507;-77
2022/01/03 12:45:34;;;;;;;10.25;3.80;;;8.30;99.90;;;;;;5027933;28;20022;-77
2022/01/03 12:51:04;;;;;;;9.10;3.20;;;8.30;99.90;;;;;;5026428;28;20029;-77
2022/01/03 12:53:30;;;;;;;8.73;3.17;;;8.30;99.90;;;;;;5006955;28;20247;-77
2022/01/03 12:56:05;;;;;;;11.30;3.75;;;8.30;99.90;;;;;;5013865;28;20109;-77
2022/01/03 12:58:30;;;;;;;9.90;3.63;;;8.30;99.90;;;;;;5010731;28;20029;-77
2022/01/03 13:00:58;;;;;;;9.50;3.42;;;8.30;99.90;;;;;;5020663;28;20038;-76
2022/01/03 13:03:43;;;;;;;11.38;3.30;;;8.30;99.90;;;;;;5015058;28;20029;-77
2022/01/03 13:06:18;;;;;;;10.50;3.55;;;8.20;99.90;;;;;;5030192;28;20025;-75
2022/01/03 13:08:55;;;;;;;11.57;3.83;;;8.20;99.90;;;;;;5026571;28;20092;-78
2022/01/03 13:11:24;;;;;;;12.48;3.25;;;8.20;99.90;;;;;;5027411;28;20034;-75
2022/01/03 13:13:55;;;;;;;11.95;4.25;;;8.20;99.90;;;;;;5012765;28;20037;-77
2022/01/03 13:16:29;;;;;;;12.32;4.80;;;8.30;99.90;;;;;;5019757;28;20036;-76
2022/01/03 13:19:12;;;;;;;14.77;4.60;;;8.30;99.90;;;;;;4997188;28;20029;-76
2022/01/03 13:21:49;;;;;;;10.43;4.30;;;8.30;99.90;;;;;;4996495;28;20026;-75
2022/01/03 13:24:22;;;;;;;9.90;4.07;;;8.30;99.90;;;;;;5013224;28;20508;-76
2022/01/03 13:26:58;;;;;;;11.15;3.80;;;8.40;99.90;;;;;;4995775;28;20120;-77